Time;durP1;ratioP1;P1;durP2;ratioP2;P2;SDS_P1;SDS_P2;PMS_P1;PMS_P2;Temp;Humidity;BMP_temperature;BMP_pressure;BME280_temperature;BME280_humidity;BME280_pressure;Samples;Min_cycle;Max_cycle;Signal;HPM_P1;HPM_P2
2023/01/18 00:00:20;;;;;;;27.00;16.00;;;0.40;99.90;;;;;;5115301;28;20563;-92
2023/01/18 00:02:48;;;;;;;26.73;17.30;;;0.40;99.90;;;;;;5114804;28;20484;-92
2023/01/18 00:05:15;;;;;;;26.80;16.10;;;0.30;99.90;;;;;;5115542;28;20453;-93
2023/01/18 00:07:44;;;;;;;29.53;18.43;;;0.30;99.90;;;;;;5115432;28;20441;-93
2023/01/18 00:10:11;;;;;;;32.03;20.23;;;0.30;99.90;;;;;;5115642;28;20474;-91
2023/01/18 00:12:38;;;;;;;32.20;19.97;;;0.30;99.90;;;;;;5115456;28;20488;-91
2023/01/18 00:15:07;;;;;;;29.13;18.70;;;0.30;99.90;;;;;;5115300;28;20481;-92
2023/01/18 00:17:46;;;;;;;26.13;18.10;;;0.20;99.90;;;;;;5114722;28;20490;-92
2023/01/18 00:20:13;;;;;;;26.90;17.97;;;0.20;99.90;;;;;;5114744;28;21088;-91
2023/01/18 00:22:40;;;;;;;29.97;18.73;;;0.10;99.90;;;;;;5115487;28;20473;-92
2023/01/18 00:25:09;;;;;;;26.97;17.77;;;0.10;99.90;;;;;;5116017;28;20476;-91
2023/01/18 00:27:37;;;;;;;30.10;22.98;;;0.10;99.90;;;;;;5118196;28;20428;-92
2023/01/18 00:30:07;;;;;;;31.33;20.27;;;0.20;99.90;;;;;;5119377;28;20212;-91
2023/01/18 00:32:34;;;;;;;27.43;18.73;;;0.20;99.90;;;;;;5119633;28;20480;-92
2023/01/18 00:35:06;;;;;;;25.20;17.57;;;0.20;99.90;;;;;;5119299;28;20540;-91
2023/01/18 00:37:33;;;;;;;24.87;17.20;;;0.10;99.90;;;;;;5119590;28;20456;-91
2023/01/18 00:40:00;;;;;;;28.53;17.67;;;0.10;99.90;;;;;;5118957;28;21022;-92
2023/01/18 00:45:13;;;;;;;29.93;19.27;;;0.10;99.90;;;;;;5119580;28;20443;-90
2023/01/18 00:47:40;;;;;;;25.70;17.10;;;0.00;99.90;;;;;;5100459;28;20444;-91
2023/01/18 00:50:08;;;;;;;29.90;18.57;;;-0.10;99.90;;;;;;5119002;28;20484;-92
2023/01/18 00:52:35;;;;;;;29.60;18.10;;;0.00;99.90;;;;;;5119007;28;20456;-92
2023/01/18 00:55:02;;;;;;;24.33;16.80;;;-0.10;99.90;;;;;;5122168;28;20531;-91
2023/01/18 00:57:31;;;;;;;33.22;24.67;;;0.00;99.90;;;;;;5120485;28;20424;-92
2023/01/18 00:59:58;;;;;;;30.87;19.17;;;0.00;99.90;;;;;;5121876;28;20285;-93
2023/01/18 01:02:25;;;;;;;29.33;19.20;;;0.00;99.90;;;;;;5119704;28;20479;-93
2023/01/18 01:07:37;;;;;;;29.97;17.90;;;-0.10;99.90;;;;;;5119899;28;20432;-91
2023/01/18 01:10:08;;;;;;;27.87;19.00;;;-0.20;99.90;;;;;;5120917;28;20532;-92
2023/01/18 02:22:51;;;;;;;25.77;16.60;;;-1.10;99.90;;;;;;5057771;28;20428;-84
2023/01/18 02:56:32;;;;;;;32.73;17.67;;;-1.00;99.90;;;;;;5062280;28;20432;-84
2023/01/18 03:07:02;;;;;;;26.23;15.97;;;-1.00;99.90;;;;;;5081135;28;20431;-84
2023/01/18 03:45:03;;;;;;;22.20;14.60;;;-0.80;99.90;;;;;;4998323;28;20423;-84
2023/01/18 03:51:35;;;;;;;20.13;14.63;;;-1.00;99.90;;;;;;5136562;28;20445;-83
2023/01/18 05:07:49;;;;;;;20.47;12.93;;;-0.70;99.90;;;;;;5097772;28;20287;-90
2023/01/18 05:10:30;;;;;;;17.20;12.50;;;-0.60;99.90;;;;;;5099697;28;20452;-90
2023/01/18 05:13:00;;;;;;;16.33;11.60;;;-0.60;99.90;;;;;;5100727;28;20473;-93
2023/01/18 05:15:29;;;;;;;18.73;12.30;;;-0.50;99.90;;;;;;5096213;28;20489;-92
2023/01/18 05:18:00;;;;;;;16.90;11.03;;;-0.40;99.90;;;;;;5089439;28;20545;-89
2023/01/18 05:20:40;;;;;;;16.07;11.03;;;-0.50;99.90;;;;;;5098832;28;20489;-90
2023/01/18 05:23:13;;;;;;;16.43;11.87;;;-0.60;99.90;;;;;;5086834;28;20501;-91
2023/01/18 05:25:46;;;;;;;16.97;11.37;;;-0.60;99.90;;;;;;5089024;28;20516;-92
2023/01/18 05:28:16;;;;;;;18.10;11.70;;;-0.60;99.90;;;;;;5102692;28;20458;-91
2023/01/18 05:30:53;;;;;;;18.73;11.87;;;-0.60;99.90;;;;;;5100491;28;20441;-92
2023/01/18 05:33:26;;;;;;;15.57;11.60;;;-0.60;99.90;;;;;;5099495;28;20532;-93
2023/01/18 05:35:55;;;;;;;20.70;10.87;;;-0.60;99.90;;;;;;5087216;28;20829;-91
2023/01/18 05:38:28;;;;;;;17.60;11.10;;;-0.60;99.90;;;;;;5077560;28;20489;-91
2023/01/18 05:40:56;;;;;;;14.27;10.23;;;-0.60;99.90;;;;;;5078661;28;20915;-92
2023/01/18 05:43:28;;;;;;;19.03;11.37;;;-0.70;99.90;;;;;;5079008;28;20505;-92
2023/01/18 05:45:56;;;;;;;17.50;11.17;;;-0.70;99.90;;;;;;5078845;28;20538;-91
2023/01/18 05:48:27;;;;;;;17.63;12.13;;;-0.70;99.90;;;;;;5080578;28;20450;-93
2023/01/18 05:51:00;;;;;;;15.33;11.37;;;-0.70;99.90;;;;;;5079383;28;20455;-92
2023/01/18 05:56:36;;;;;;;23.23;11.70;;;-0.60;99.90;;;;;;5079591;28;20997;-90
2023/01/18 05:59:06;;;;;;;17.70;10.60;;;-0.60;99.90;;;;;;5094547;28;20423;-91
2023/01/18 06:01:35;;;;;;;16.43;11.40;;;-0.50;99.90;;;;;;5101437;28;20511;-92
2023/01/18 06:04:02;;;;;;;19.23;10.67;;;-0.70;99.90;;;;;;5112372;28;20458;-92
2023/01/18 06:06:29;;;;;;;22.30;16.23;;;-0.70;99.90;;;;;;5110287;28;21005;-92
2023/01/18 06:09:03;;;;;;;18.50;11.77;;;-0.60;99.90;;;;;;5107084;28;20229;-94
2023/01/18 06:11:52;;;;;;;15.57;10.93;;;-0.60;99.90;;;;;;5106360;28;20440;-91
2023/01/18 06:14:22;;;;;;;15.10;10.47;;;-0.40;99.90;;;;;;5080136;28;20881;-93
2023/01/18 06:22:27;;;;;;;22.50;11.23;;;-0.40;99.90;;;;;;5094636;28;20450;-91
2023/01/18 06:24:55;;;;;;;27.53;11.67;;;-0.50;99.90;;;;;;5098729;28;20465;-91
2023/01/18 06:27:22;;;;;;;15.17;10.13;;;-0.50;99.90;;;;;;5101980;28;20507;-92
2023/01/18 06:29:54;;;;;;;16.33;10.50;;;-0.50;99.90;;;;;;5095362;28;20447;-93
2023/01/18 06:32:22;;;;;;;20.80;10.67;;;-0.50;99.90;;;;;;5077527;28;20550;-93
2023/01/18 06:34:49;;;;;;;18.23;10.93;;;-0.50;99.90;;;;;;5096556;28;20450;-91
2023/01/18 06:37:16;;;;;;;17.43;11.10;;;-0.40;99.90;;;;;;5099956;28;20806;-92
2023/01/18 06:39:43;;;;;;;18.67;11.77;;;-0.70;99.90;;;;;;5096580;28;20525;-91
2023/01/18 06:42:13;;;;;;;16.63;11.37;;;-0.60;99.90;;;;;;5099037;28;20445;-92
2023/01/18 06:47:20;;;;;;;16.90;11.20;;;-0.50;99.90;;;;;;5099556;28;20495;-91
2023/01/18 06:49:48;;;;;;;17.93;11.63;;;-0.50;99.90;;;;;;5090097;28;20439;-94
2023/01/18 06:52:16;;;;;;;19.80;11.80;;;-0.50;99.90;;;;;;5077058;28;20538;-91
2023/01/18 06:54:43;;;;;;;18.67;11.73;;;-0.40;99.90;;;;;;5086890;28;20453;-92
2023/01/18 06:57:12;;;;;;;18.00;12.03;;;-0.50;99.90;;;;;;5096174;28;20487;-93
2023/01/18 06:59:39;;;;;;;24.90;13.53;;;-0.50;99.90;;;;;;5087709;28;20549;-92
2023/01/18 07:02:07;;;;;;;19.73;12.37;;;-0.50;99.90;;;;;;5093369;28;20537;-92
2023/01/18 07:04:36;;;;;;;23.87;12.10;;;-0.50;99.90;;;;;;5101067;28;20533;-94
2023/01/18 07:07:03;;;;;;;22.83;13.17;;;-0.60;99.90;;;;;;5091717;28;20454;-92
2023/01/18 07:09:32;;;;;;;21.83;12.83;;;-0.40;99.90;;;;;;5100180;28;20450;-92
2023/01/18 07:12:02;;;;;;;19.90;12.50;;;-0.40;99.90;;;;;;5098607;28;20537;-92
2023/01/18 07:14:32;;;;;;;18.80;11.50;;;-0.50;99.90;;;;;;5094717;28;20981;-91
2023/01/18 07:17:00;;;;;;;20.63;12.13;;;-0.60;99.90;;;;;;5083594;28;20438;-93
2023/01/18 07:19:27;;;;;;;20.93;11.50;;;-0.70;99.90;;;;;;5085280;28;20468;-92
2023/01/18 07:21:57;;;;;;;15.67;12.47;;;-0.70;99.90;;;;;;5097145;28;20927;-91
2023/01/18 07:24:25;;;;;;;18.50;12.50;;;-0.70;99.90;;;;;;5097536;28;20478;-92
2023/01/18 07:26:52;;;;;;;18.83;13.03;;;-0.60;99.90;;;;;;5077304;28;20477;-92
2023/01/18 07:29:18;;;;;;;19.90;12.77;;;-0.60;99.90;;;;;;5096944;28;20514;-92
2023/01/18 07:31:47;;;;;;;18.87;12.67;;;-0.60;99.90;;;;;;5089673;28;20537;-92
2023/01/18 07:34:14;;;;;;;17.93;12.10;;;-0.60;99.90;;;;;;5092273;28;20495;-91
2023/01/18 07:36:42;;;;;;;20.88;14.30;;;-0.60;99.90;;;;;;5084293;28;20434;-94
2023/01/18 07:39:11;;;;;;;15.63;13.37;;;-0.60;99.90;;;;;;5087176;28;20269;-90
2023/01/18 07:41:38;;;;;;;20.53;12.73;;;-0.60;99.90;;;;;;5101437;28;20579;-92
2023/01/18 07:44:10;;;;;;;19.30;12.53;;;-0.60;99.90;;;;;;5100730;28;20470;-93
2023/01/18 07:46:37;;;;;;;20.77;13.03;;;-0.70;99.90;;;;;;5101180;28;20449;-92
2023/01/18 07:49:09;;;;;;;19.77;12.43;;;-0.70;99.90;;;;;;5098298;28;20446;-92
2023/01/18 07:51:38;;;;;;;18.20;12.17;;;-0.60;99.90;;;;;;5097912;28;20512;-94
2023/01/18 07:54:05;;;;;;;16.33;12.33;;;-0.60;99.90;;;;;;5100521;28;21006;-92
2023/01/18 07:56:32;;;;;;;14.70;11.77;;;-0.50;99.90;;;;;;5102096;28;20460;-92
2023/01/18 07:58:58;;;;;;;19.73;12.13;;;-0.40;99.90;;;;;;5101202;28;20461;-92
2023/01/18 08:01:27;;;;;;;14.63;11.17;;;-0.40;99.90;;;;;;5105981;28;20507;-92
2023/01/18 08:03:55;;;;;;;17.83;11.80;;;-0.40;99.90;;;;;;5110209;28;20465;-93
2023/01/18 08:06:27;;;;;;;17.43;12.63;;;-0.50;99.90;;;;;;5105794;28;20458;-91
2023/01/18 08:08:56;;;;;;;22.75;18.10;;;-0.50;99.90;;;;;;5105600;28;20445;-93
2023/01/18 08:11:24;;;;;;;23.10;13.83;;;-0.40;99.90;;;;;;5103695;28;20685;-93
2023/01/18 08:13:57;;;;;;;18.30;13.07;;;-0.40;99.90;;;;;;5101893;28;20489;-91
2023/01/18 08:16:44;;;;;;;16.43;12.83;;;-0.30;99.90;;;;;;5099857;28;20474;-91
2023/01/18 08:19:18;;;;;;;17.03;12.47;;;-0.40;99.90;;;;;;5097502;28;20441;-92
2023/01/18 08:21:51;;;;;;;18.00;11.50;;;-0.40;99.90;;;;;;5097600;28;20477;-92
2023/01/18 08:24:19;;;;;;;16.20;12.20;;;-0.30;99.90;;;;;;5097894;28;20461;-92
2023/01/18 08:26:59;;;;;;;19.77;12.77;;;-0.40;99.90;;;;;;5099517;28;20450;-91
2023/01/18 08:29:28;;;;;;;16.30;11.57;;;-0.40;99.90;;;;;;5104923;28;20460;-91
2023/01/18 08:31:59;;;;;;;18.77;13.17;;;-0.40;99.90;;;;;;5104265;28;20460;-91
2023/01/18 08:34:27;;;;;;;17.87;12.67;;;-0.40;99.90;;;;;;5096547;28;20469;-91
2023/01/18 08:36:56;;;;;;;22.50;13.07;;;-0.40;99.90;;;;;;5096295;28;20505;-93
2023/01/18 08:39:31;;;;;;;23.45;17.52;;;-0.30;99.90;;;;;;5094602;28;20457;-93
2023/01/18 08:42:04;;;;;;;20.30;13.47;;;0.00;99.90;;;;;;5096330;28;20233;-93
2023/01/18 08:44:37;;;;;;;21.10;12.40;;;0.10;99.90;;;;;;5095692;28;20557;-92
2023/01/18 08:47:06;;;;;;;18.77;12.93;;;0.00;99.90;;;;;;5097847;28;20549;-92
2023/01/18 08:49:54;;;;;;;18.53;12.90;;;-0.10;99.90;;;;;;5100566;28;20492;-94
2023/01/18 08:52:31;;;;;;;17.97;12.27;;;0.00;99.90;;;;;;5107710;28;20462;-91
2023/01/18 08:54:59;;;;;;;18.00;12.67;;;0.00;99.90;;;;;;5107834;28;20514;-92
2023/01/18 08:57:42;;;;;;;20.30;12.20;;;0.00;99.90;;;;;;5103924;28;20476;-92
2023/01/18 09:00:15;;;;;;;17.60;12.03;;;-0.10;99.90;;;;;;5110347;28;20430;-91
2023/01/18 09:02:42;;;;;;;20.60;11.87;;;-0.10;99.90;;;;;;5109582;28;20511;-91
2023/01/18 09:05:09;;;;;;;20.70;12.27;;;-0.10;99.90;;;;;;5109037;28;20469;-92
2023/01/18 09:07:40;;;;;;;17.77;12.43;;;0.00;99.90;;;;;;5111229;28;20437;-92
2023/01/18 09:10:08;;;;;;;19.10;13.07;;;0.00;99.90;;;;;;5092384;28;20468;-92
2023/01/18 09:12:38;;;;;;;16.80;12.13;;;0.00;99.90;;;;;;5109058;28;20561;-91
2023/01/18 09:15:06;;;;;;;16.73;12.23;;;0.10;99.90;;;;;;5112814;28;20905;-91
2023/01/18 09:17:36;;;;;;;20.43;12.87;;;0.10;99.90;;;;;;5111774;28;20457;-92
2023/01/18 09:20:06;;;;;;;23.97;13.33;;;0.10;99.90;;;;;;5110149;28;20500;-90
2023/01/18 09:22:56;;;;;;;78.57;17.23;;;0.10;99.90;;;;;;5110794;28;20473;-91
2023/01/18 09:25:39;;;;;;;27.37;13.60;;;0.30;99.90;;;;;;5104629;28;20445;-90
2023/01/18 09:28:06;;;;;;;21.27;13.23;;;0.40;99.90;;;;;;5101727;28;20446;-91
2023/01/18 09:30:36;;;;;;;20.27;13.27;;;0.50;99.90;;;;;;5099853;28;20534;-93
2023/01/18 09:33:03;;;;;;;21.00;13.10;;;0.50;99.90;;;;;;5100233;28;20710;-90
2023/01/18 09:35:37;;;;;;;19.43;13.23;;;0.50;99.90;;;;;;5100621;28;20473;-92
2023/01/18 09:38:09;;;;;;;16.53;12.23;;;0.40;99.90;;;;;;5099961;28;20488;-90
2023/01/18 09:40:44;;;;;;;20.70;12.83;;;0.50;99.90;;;;;;5097875;28;20807;-91
2023/01/18 09:43:34;;;;;;;18.83;13.20;;;0.50;99.90;;;;;;5101813;28;20795;-91
2023/01/18 09:46:01;;;;;;;17.57;11.63;;;0.60;99.90;;;;;;5098218;28;20533;-93
2023/01/18 09:48:31;;;;;;;19.97;12.73;;;0.80;99.90;;;;;;5098605;28;20452;-90
2023/01/18 09:51:08;;;;;;;19.07;12.33;;;0.80;99.90;;;;;;5098820;28;20464;-91
2023/01/18 09:53:49;;;;;;;24.50;13.20;;;0.90;99.90;;;;;;5098384;28;20500;-91
2023/01/18 09:56:22;;;;;;;17.43;11.57;;;0.90;99.90;;;;;;5096384;28;20478;-90
2023/01/18 09:58:58;;;;;;;22.03;12.20;;;0.90;99.90;;;;;;5095766;28;20452;-91
2023/01/18 10:01:53;;;;;;;17.80;11.93;;;1.10;99.90;;;;;;5097565;28;20496;-91
2023/01/18 10:04:30;;;;;;;22.10;11.93;;;1.10;99.90;;;;;;5107004;28;20486;-91
2023/01/18 10:07:13;;;;;;;20.20;14.23;;;1.20;99.90;;;;;;5109846;28;20431;-90
2023/01/18 10:09:51;;;;;;;23.40;12.47;;;1.30;99.90;;;;;;5101544;28;20207;-91
2023/01/18 10:12:27;;;;;;;17.63;11.10;;;1.40;99.90;;;;;;5100644;28;20488;-91
2023/01/18 10:15:02;;;;;;;21.33;11.80;;;1.40;99.90;;;;;;5092089;28;20456;-92
2023/01/18 10:17:38;;;;;;;15.87;11.13;;;1.60;99.90;;;;;;5101675;28;20484;-95
2023/01/18 10:20:30;;;;;;;19.60;11.33;;;1.70;99.90;;;;;;5101491;28;20437;-91
2023/01/18 10:23:01;;;;;;;21.33;9.77;;;1.70;99.90;;;;;;5087326;28;20550;-91
2023/01/18 10:25:40;;;;;;;14.40;9.43;;;1.90;99.90;;;;;;5084625;28;20504;-91
2023/01/18 10:28:46;;;;;;;14.90;9.27;;;1.90;99.90;;;;;;5088309;28;20513;-96
2023/01/18 10:34:49;;;;;;;13.47;8.10;;;2.10;99.90;;;;;;5116504;22;20470;-91
2023/01/18 10:37:45;;;;;;;12.20;8.50;;;2.10;99.90;;;;;;5108745;28;20464;-92
2023/01/18 10:40:21;;;;;;;13.20;8.50;;;2.10;99.90;;;;;;5109992;28;20434;-93
2023/01/18 10:46:22;;;;;;;12.50;7.87;;;2.20;99.90;;;;;;5119381;22;20561;-92
2023/01/18 10:49:04;;;;;;;12.00;7.70;;;2.30;99.90;;;;;;5103825;28;20489;-91
2023/01/18 10:51:33;;;;;;;12.17;7.70;;;2.30;99.90;;;;;;5100630;28;20445;-91
2023/01/18 10:54:21;;;;;;;13.47;7.93;;;2.50;99.90;;;;;;5089002;28;20524;-92
2023/01/18 10:56:48;;;;;;;10.20;7.17;;;2.60;99.90;;;;;;5096187;28;20521;-92
2023/01/18 10:59:29;;;;;;;11.67;7.03;;;2.70;99.90;;;;;;5098681;28;20541;-93
2023/01/18 11:36:10;;;;;;;10.67;5.93;;;3.50;99.90;;;;;;5166641;22;20462;-93
2023/01/18 11:38:44;;;;;;;11.30;6.63;;;3.40;99.90;;;;;;5079739;28;20477;-92
2023/01/18 11:41:25;;;;;;;8.73;6.27;;;3.40;99.90;;;;;;5079027;28;20507;-93
2023/01/18 11:44:06;;;;;;;10.90;6.77;;;3.50;99.90;;;;;;5093487;28;20524;-92
2023/01/18 11:47:02;;;;;;;13.07;7.50;;;3.50;99.90;;;;;;5101817;28;20467;-94
2023/01/18 11:50:03;;;;;;;13.00;5.97;;;3.60;99.90;;;;;;5100775;28;20449;-92
2023/01/18 11:52:45;;;;;;;10.27;6.90;;;3.60;99.90;;;;;;5099076;28;20464;-95
2023/01/18 11:55:30;;;;;;;10.43;6.73;;;3.60;99.90;;;;;;5097710;28;20456;-94
2023/01/18 11:58:00;;;;;;;13.87;6.50;;;3.60;99.90;;;;;;5095901;28;20460;-92
2023/01/18 12:00:45;;;;;;;13.50;5.87;;;3.70;99.90;;;;;;5098732;28;20450;-93
2023/01/18 12:03:27;;;;;;;8.30;5.90;;;3.70;99.90;;;;;;5098097;28;20583;-92
2023/01/18 12:06:02;;;;;;;11.50;6.88;;;3.80;99.90;;;;;;5099491;28;20533;-94
2023/01/18 12:09:02;;;;;;;8.63;5.70;;;3.70;99.90;;;;;;5096246;28;20204;-90
2023/01/18 12:11:46;;;;;;;11.20;6.27;;;3.70;99.90;;;;;;5095902;28;20477;-91
2023/01/18 12:14:34;;;;;;;10.70;6.03;;;3.80;99.90;;;;;;5095545;28;20504;-91
2023/01/18 12:17:15;;;;;;;8.63;5.87;;;3.80;99.90;;;;;;5098325;28;20461;-91
2023/01/18 12:20:02;;;;;;;13.00;5.87;;;3.80;99.90;;;;;;5095968;28;20433;-92
2023/01/18 12:23:18;;;;;;;8.33;4.70;;;4.00;99.90;;;;;;5117607;28;20485;-93
2023/01/18 12:29:44;;;;;;;8.97;4.87;;;4.00;99.90;;;;;;5116311;28;20417;-93
2023/01/18 12:32:32;;;;;;;13.83;5.03;;;4.00;99.90;;;;;;5111788;28;20533;-93
2023/01/18 12:38:33;;;;;;;9.20;5.88;;;4.10;99.90;;;;;;5089848;28;20421;-92
2023/01/18 12:41:32;;;;;;;6.07;4.73;;;4.30;99.90;;;;;;5085550;28;20661;-91
2023/01/18 12:44:57;;;;;;;6.30;4.50;;;4.30;99.90;;;;;;5070043;28;20225;-92
2023/01/18 12:47:39;;;;;;;7.07;5.60;;;4.50;99.90;;;;;;5081790;28;20228;-92
2023/01/18 12:50:22;;;;;;;6.63;4.90;;;4.50;99.90;;;;;;5086033;28;20204;-92
2023/01/18 12:52:57;;;;;;;6.13;5.10;;;4.50;99.90;;;;;;5080471;28;20217;-93
2023/01/18 12:55:31;;;;;;;8.60;5.07;;;4.50;99.90;;;;;;5081907;28;20764;-93
2023/01/18 12:58:01;;;;;;;6.93;4.80;;;4.50;99.90;;;;;;5089150;28;20949;-94
2023/01/18 13:01:03;;;;;;;9.40;4.70;;;4.50;99.90;;;;;;5085307;28;20442;-93
2023/01/18 13:03:41;;;;;;;6.10;4.10;;;4.50;99.90;;;;;;5108621;28;20228;-92
2023/01/18 13:06:14;;;;;;;8.40;5.20;;;4.50;99.90;;;;;;5105594;28;20441;-93
2023/01/18 13:08:45;;;;;;;7.30;4.80;;;4.60;99.90;;;;;;5112250;28;20220;-91
2023/01/18 13:11:24;;;;;;;5.67;4.63;;;4.60;99.90;;;;;;5103882;28;20216;-93
2023/01/18 13:20:12;;;;;;;6.13;4.10;;;4.80;99.90;;;;;;5106872;28;20265;-93
2023/01/18 13:23:02;;;;;;;10.33;5.83;;;4.80;99.90;;;;;;5113895;28;20236;-92
2023/01/18 13:25:48;;;;;;;7.90;6.20;;;4.80;99.90;;;;;;5108174;28;20441;-94
2023/01/18 13:28:20;;;;;;;9.80;6.13;;;4.90;99.90;;;;;;5092172;28;20197;-94
2023/01/18 13:30:55;;;;;;;8.83;5.83;;;4.90;99.90;;;;;;5113013;28;20201;-92
2023/01/18 13:33:30;;;;;;;8.33;6.07;;;4.80;99.90;;;;;;5092746;28;20608;-91
2023/01/18 13:36:04;;;;;;;9.03;5.63;;;4.90;99.90;;;;;;5111584;28;20215;-92
2023/01/18 13:41:21;;;;;;;8.97;6.20;;;5.00;99.90;;;;;;5106471;28;20608;-93
2023/01/18 13:44:31;;;;;;;9.23;5.87;;;4.90;99.90;;;;;;5106146;28;20315;-92
2023/01/18 13:47:00;;;;;;;11.17;6.73;;;5.00;99.90;;;;;;5109524;28;20250;-93
2023/01/18 13:49:36;;;;;;;12.53;5.97;;;4.90;99.90;;;;;;5105586;28;20201;-93
2023/01/18 13:55:32;;;;;;;9.63;5.67;;;5.00;99.90;;;;;;5107804;28;20542;-93
2023/01/18 14:00:48;;;;;;;9.30;6.07;;;4.80;99.90;;;;;;5106487;28;20198;-92
2023/01/18 14:03:24;;;;;;;7.80;6.17;;;4.90;99.90;;;;;;5102845;28;20235;-91
2023/01/18 14:06:07;;;;;;;9.23;6.13;;;4.90;99.90;;;;;;5104953;28;20209;-92
2023/01/18 14:11:48;;;;;;;11.90;6.30;;;5.10;99.90;;;;;;5104698;28;20449;-95
2023/01/18 14:14:28;;;;;;;11.43;6.50;;;5.20;99.90;;;;;;5088153;28;20217;-94
2023/01/18 14:20:29;;;;;;;10.17;5.33;;;5.10;99.90;;;;;;5105549;28;20205;-94
2023/01/18 14:26:06;;;;;;;9.47;6.53;;;5.10;99.90;;;;;;5108045;28;20201;-91
2023/01/18 14:28:41;;;;;;;11.70;5.80;;;5.10;99.90;;;;;;5115248;28;20205;-93
2023/01/18 14:31:23;;;;;;;8.80;5.83;;;5.20;99.90;;;;;;5117101;28;20272;-93
2023/01/18 14:36:39;;;;;;;9.43;7.20;;;5.10;99.90;;;;;;5117111;28;20197;-93
2023/01/18 14:48:21;;;;;;;7.07;4.90;;;5.10;99.90;;;;;;5107745;28;20646;-92
2023/01/18 14:56:30;;;;;;;7.07;5.40;;;5.30;99.90;;;;;;5103007;28;20608;-93
2023/01/18 14:59:00;;;;;;;8.60;5.63;;;5.30;99.90;;;;;;5105144;28;20230;-92
2023/01/18 15:01:30;;;;;;;8.83;6.53;;;5.20;99.90;;;;;;5105158;28;20227;-94
2023/01/18 15:04:29;;;;;;;8.30;6.33;;;5.20;99.90;;;;;;5105216;28;20262;-94
2023/01/18 15:07:08;;;;;;;8.40;5.83;;;5.10;99.90;;;;;;5105614;28;20208;-91
2023/01/18 15:12:32;;;;;;;9.87;6.43;;;5.30;99.90;;;;;;5111601;28;20731;-94
2023/01/18 15:17:50;;;;;;;13.23;7.30;;;5.50;99.90;;;;;;5106654;28;20208;-92
2023/01/18 15:20:31;;;;;;;11.27;6.40;;;5.30;99.90;;;;;;5107894;28;20221;-93
2023/01/18 15:23:12;;;;;;;7.23;5.03;;;5.40;99.90;;;;;;5105562;28;20720;-93
2023/01/18 15:25:42;;;;;;;8.43;5.27;;;5.40;99.90;;;;;;5104504;28;20288;-92
2023/01/18 15:28:11;;;;;;;6.90;5.30;;;5.30;99.90;;;;;;5098076;28;20213;-94
2023/01/18 15:30:42;;;;;;;8.83;4.50;;;5.10;99.90;;;;;;5085027;28;20259;-90
2023/01/18 15:33:28;;;;;;;5.20;4.40;;;5.10;99.90;;;;;;5091930;28;20282;-92
2023/01/18 15:43:06;;;;;;;8.10;4.33;;;5.00;99.90;;;;;;5105442;28;20221;-94
2023/01/18 15:53:54;;;;;;;4.90;4.40;;;5.00;99.90;;;;;;5102559;28;20232;-92
2023/01/18 16:11:25;;;;;;;7.20;4.10;;;4.60;99.90;;;;;;5152212;28;20313;-95
2023/01/18 16:17:37;;;;;;;4.53;3.73;;;4.50;99.90;;;;;;5145805;28;20206;-95
2023/01/18 16:20:25;;;;;;;4.93;4.43;;;4.60;99.90;;;;;;5149453;28;20245;-94
2023/01/18 16:40:12;;;;;;;6.50;4.37;;;4.20;99.90;;;;;;5006418;28;20216;-85
2023/01/18 16:46:13;;;;;;;7.47;4.50;;;4.20;99.90;;;;;;4993385;28;20474;-87
2023/01/18 16:48:53;;;;;;;5.30;4.03;;;4.00;99.90;;;;;;4997147;28;20197;-86
2023/01/18 16:51:36;;;;;;;7.60;4.80;;;4.00;99.90;;;;;;4981641;28;20217;-87
2023/01/18 16:57:45;;;;;;;6.07;4.60;;;4.00;99.90;;;;;;5010262;28;20232;-85
2023/01/18 17:00:57;;;;;;;8.43;4.60;;;4.00;99.90;;;;;;5011618;28;20208;-85
2023/01/18 17:03:41;;;;;;;6.23;4.43;;;3.90;99.90;;;;;;5009926;28;20572;-85
2023/01/18 17:06:18;;;;;;;7.23;5.20;;;3.90;99.90;;;;;;5018681;28;20272;-86
2023/01/18 17:08:56;;;;;;;11.30;6.03;;;3.90;99.90;;;;;;5063323;28;20449;-85
2023/01/18 17:11:32;;;;;;;11.33;5.33;;;3.80;99.90;;;;;;5075384;28;20251;-85
2023/01/18 17:21:06;;;;;;;19.97;10.20;;;3.90;99.90;;;;;;5070578;28;20273;-86
2023/01/18 17:27:41;;;;;;;11.67;5.90;;;3.80;99.90;;;;;;5072711;28;20443;-85
2023/01/18 17:30:26;;;;;;;33.77;19.57;;;3.70;99.90;;;;;;5054509;28;20452;-84
2023/01/18 17:33:22;;;;;;;8.43;5.17;;;3.60;99.90;;;;;;5076050;28;20466;-85
2023/01/18 17:38:48;;;;;;;10.93;6.70;;;3.50;99.90;;;;;;5071262;28;20467;-84
2023/01/18 17:41:19;;;;;;;9.40;5.00;;;3.40;99.90;;;;;;5055052;28;20432;-83
2023/01/18 17:44:06;;;;;;;12.70;6.77;;;3.50;99.90;;;;;;5059879;28;20483;-86
2023/01/18 17:46:34;;;;;;;10.20;5.50;;;3.50;99.90;;;;;;5063388;28;20447;-77
2023/01/18 17:49:02;;;;;;;10.20;5.10;;;3.50;99.90;;;;;;5054430;28;20448;-77
2023/01/18 17:51:29;;;;;;;21.47;9.00;;;3.50;99.90;;;;;;5056213;28;20496;-77
2023/01/18 17:53:58;;;;;;;19.00;8.13;;;3.40;99.90;;;;;;5052428;28;20446;-77
2023/01/18 17:56:25;;;;;;;13.97;6.83;;;3.60;99.90;;;;;;5055083;28;20934;-77
2023/01/18 17:58:53;;;;;;;11.03;5.50;;;3.50;99.90;;;;;;5051486;28;20443;-77
2023/01/18 18:01:22;;;;;;;12.13;6.83;;;3.40;99.90;;;;;;5057354;28;20535;-77
2023/01/18 18:03:51;;;;;;;9.70;5.67;;;3.30;99.90;;;;;;5058422;28;20479;-80
2023/01/18 18:06:21;;;;;;;8.27;4.80;;;3.30;99.90;;;;;;5061448;28;20510;-77
2023/01/18 18:08:48;;;;;;;9.43;6.60;;;3.30;99.90;;;;;;5057466;28;20459;-76
2023/01/18 18:11:15;;;;;;;8.47;5.80;;;3.40;99.90;;;;;;5057887;28;20451;-78
2023/01/18 18:13:43;;;;;;;9.33;6.03;;;3.30;99.90;;;;;;5060974;28;20454;-80
2023/01/18 18:16:16;;;;;;;9.03;5.93;;;3.30;99.90;;;;;;5059099;28;20459;-81
2023/01/18 18:25:06;;;;;;;7.33;5.40;;;3.20;99.90;;;;;;5069275;28;20506;-86
2023/01/18 18:30:51;;;;;;;8.63;5.80;;;3.10;99.90;;;;;;5074517;28;20451;-85
2023/01/18 18:33:23;;;;;;;7.93;5.13;;;3.20;99.90;;;;;;5065534;28;20446;-80
2023/01/18 18:35:50;;;;;;;8.23;6.20;;;3.10;99.90;;;;;;5059120;28;20438;-80
2023/01/18 18:38:22;;;;;;;8.33;5.60;;;3.10;99.90;;;;;;5059464;28;20448;-80
2023/01/18 18:40:49;;;;;;;8.30;6.23;;;3.20;99.90;;;;;;5058693;28;20959;-79
2023/01/18 18:43:19;;;;;;;8.63;6.40;;;3.00;99.90;;;;;;5057113;28;20486;-80
2023/01/18 18:45:47;;;;;;;7.00;5.40;;;3.00;99.90;;;;;;5057166;28;20443;-80
2023/01/18 18:48:22;;;;;;;7.60;5.90;;;3.00;99.90;;;;;;5061525;28;20458;-82
2023/01/18 18:50:57;;;;;;;7.90;6.37;;;3.00;99.90;;;;;;5072366;28;20447;-84
2023/01/18 18:53:51;;;;;;;10.57;6.13;;;2.90;99.90;;;;;;5072144;28;20454;-84
2023/01/18 18:56:24;;;;;;;10.40;6.97;;;3.00;99.90;;;;;;5058331;28;20447;-84
2023/01/18 18:58:55;;;;;;;7.83;6.80;;;2.90;99.90;;;;;;5054815;28;20462;-85
2023/01/18 19:01:50;;;;;;;8.13;6.87;;;2.80;99.90;;;;;;5073632;28;20458;-85
2023/01/18 19:04:23;;;;;;;9.13;6.93;;;2.90;99.90;;;;;;5072352;28;20490;-85
2023/01/18 19:07:00;;;;;;;7.97;6.70;;;2.90;99.90;;;;;;5072387;28;20444;-85
2023/01/18 19:14:55;;;;;;;9.33;6.97;;;2.90;99.90;;;;;;5071232;28;20479;-85
2023/01/18 19:20:20;;;;;;;10.23;7.47;;;2.90;99.90;;;;;;5071668;28;20438;-83
2023/01/18 19:22:51;;;;;;;8.70;7.67;;;2.80;99.90;;;;;;5073269;28;20462;-84
2023/01/18 19:25:32;;;;;;;8.50;7.70;;;2.80;99.90;;;;;;5072957;28;20436;-84
2023/01/18 19:28:01;;;;;;;8.77;7.87;;;2.80;99.90;;;;;;5064681;28;20947;-78
2023/01/18 19:30:32;;;;;;;8.07;7.30;;;2.70;99.90;;;;;;5057114;28;20452;-78
2023/01/18 19:33:00;;;;;;;11.73;8.90;;;2.70;99.90;;;;;;5056980;28;20444;-79
2023/01/18 19:35:27;;;;;;;8.17;7.30;;;2.70;99.90;;;;;;5057102;28;20432;-78
2023/01/18 19:37:55;;;;;;;8.73;6.90;;;2.70;99.90;;;;;;5057655;28;20522;-78
2023/01/18 19:40:27;;;;;;;8.23;7.53;;;2.70;99.90;;;;;;5059347;28;20460;-79
2023/01/18 19:42:54;;;;;;;11.17;9.10;;;2.70;99.90;;;;;;5042955;28;20463;-78
2023/01/18 19:45:23;;;;;;;17.23;10.20;;;2.80;99.90;;;;;;5037431;28;20444;-79
2023/01/18 19:47:51;;;;;;;8.17;7.30;;;2.80;99.90;;;;;;5055322;28;20443;-78
2023/01/18 19:50:18;;;;;;;12.07;9.00;;;2.90;99.90;;;;;;5022077;28;20470;-79
2023/01/18 19:52:46;;;;;;;9.03;8.13;;;2.80;99.90;;;;;;5057549;28;20431;-79
2023/01/18 19:55:13;;;;;;;10.50;8.30;;;2.80;99.90;;;;;;5054327;28;20447;-79
2023/01/18 19:57:42;;;;;;;20.03;9.77;;;2.70;99.90;;;;;;5037886;28;20440;-78
2023/01/18 20:00:10;;;;;;;9.90;8.90;;;2.80;99.90;;;;;;5032199;28;20485;-78
2023/01/18 20:02:38;;;;;;;18.60;11.57;;;2.90;99.90;;;;;;5054979;28;20451;-78
2023/01/18 20:05:06;;;;;;;11.53;8.80;;;2.80;99.90;;;;;;5039783;28;20883;-78
2023/01/18 20:07:33;;;;;;;9.30;7.70;;;2.90;99.90;;;;;;5045127;28;20449;-80
2023/01/18 20:10:00;;;;;;;11.30;8.20;;;3.00;99.90;;;;;;5054211;28;20454;-80
2023/01/18 20:12:30;;;;;;;8.90;7.33;;;3.00;99.90;;;;;;5053850;28;21006;-78
2023/01/18 20:15:05;;;;;;;9.03;8.07;;;3.00;99.90;;;;;;5056137;28;20447;-78
2023/01/18 20:17:41;;;;;;;10.40;7.97;;;3.00;99.90;;;;;;5057203;28;20444;-79
2023/01/18 20:20:09;;;;;;;11.13;7.70;;;3.10;99.90;;;;;;5055200;28;20459;-79